createdAt,value
2022-12-04T00:02:00.250Z,1.20
2022-12-04T00:04:26.636Z,1.15
2022-12-04T00:06:58.920Z,1.43
2022-12-04T00:09:26.032Z,1.67
2022-12-04T00:11:52.495Z,1.30
2022-12-04T00:14:19.113Z,1.21
2022-12-04T00:16:45.598Z,1.41
2022-12-04T00:19:11.989Z,1.44
2022-12-04T00:21:38.421Z,1.47
2022-12-04T00:24:05.462Z,1.56
2022-12-04T00:26:31.882Z,1.63
2022-12-04T00:28:59.095Z,1.50
2022-12-04T00:31:28.301Z,1.35
2022-12-04T00:33:55.089Z,1.42
2022-12-04T00:36:23.818Z,1.35
2022-12-04T00:38:50.754Z,1.18
2022-12-04T00:41:21.832Z,1.20
2022-12-04T00:43:48.506Z,1.20
2022-12-04T00:46:15.952Z,1.30
2022-12-04T00:48:42.979Z,1.26
2022-12-04T00:51:14.714Z,1.38
2022-12-04T00:53:41.996Z,1.81
2022-12-04T00:56:20.353Z,1.85
2022-12-04T00:58:47.673Z,1.71
2022-12-04T01:01:17.813Z,1.84
2022-12-04T01:03:44.627Z,1.65
2022-12-04T01:06:25.933Z,1.66
2022-12-04T01:08:54.191Z,1.68
2022-12-04T01:11:22.206Z,1.69
2022-12-04T01:13:49.212Z,1.65
2022-12-04T01:16:28.323Z,1.72
2022-12-04T01:18:54.789Z,1.56
2022-12-04T01:21:21.171Z,1.63
2022-12-04T01:23:48.369Z,1.78
2022-12-04T01:26:14.824Z,1.60
2022-12-04T01:28:41.563Z,1.33
2022-12-04T01:31:11.587Z,1.54
2022-12-04T01:33:39.567Z,1.43
2022-12-04T01:36:09.322Z,1.36
2022-12-04T01:38:36.381Z,1.47
2022-12-04T01:41:04.000Z,1.65
2022-12-04T01:43:32.321Z,1.71
2022-12-04T01:46:00.310Z,1.51
2022-12-04T01:48:33.048Z,1.38
2022-12-04T01:51:19.240Z,1.37
2022-12-04T01:53:55.946Z,1.45
2022-12-04T01:56:26.311Z,1.43
2022-12-04T01:58:56.837Z,1.52
2022-12-04T02:01:23.518Z,1.51
2022-12-04T02:03:50.243Z,1.50
2022-12-04T02:06:16.664Z,1.73
2022-12-04T02:08:43.244Z,1.63
2022-12-04T02:11:19.509Z,1.57
2022-12-04T02:13:51.735Z,1.65
2022-12-04T02:16:45.847Z,1.55
2022-12-04T02:19:34.221Z,1.36
2022-12-04T02:22:05.545Z,1.73
2022-12-04T02:24:31.962Z,1.67
2022-12-04T02:27:03.724Z,1.63
2022-12-04T02:29:46.976Z,1.54
2022-12-04T02:32:23.749Z,1.77
2022-12-04T02:35:04.065Z,1.46
2022-12-04T02:37:37.875Z,1.63
2022-12-04T02:40:25.824Z,1.62
2022-12-04T02:43:01.088Z,1.50
2022-12-04T02:45:32.577Z,1.43
2022-12-04T02:48:02.965Z,1.71
2022-12-04T02:50:32.637Z,2.10
2022-12-04T02:53:05.525Z,2.15
2022-12-04T02:55:45.945Z,1.80
2022-12-04T02:58:17.996Z,1.91
2022-12-04T03:00:47.055Z,1.61
2022-12-04T03:03:19.001Z,1.46
2022-12-04T03:06:00.157Z,1.57
2022-12-04T03:08:34.098Z,1.69
2022-12-04T03:11:01.401Z,1.86
2022-12-04T03:13:49.112Z,1.68
2022-12-04T03:16:24.352Z,1.56
2022-12-04T03:19:01.648Z,1.61
2022-12-04T03:21:35.700Z,1.56
2022-12-04T03:24:26.870Z,1.46
2022-12-04T03:27:14.321Z,1.78
2022-12-04T03:30:11.436Z,1.93
2022-12-04T03:32:56.569Z,1.74
2022-12-04T03:35:35.041Z,1.75
2022-12-04T03:38:10.148Z,1.58
2022-12-04T03:40:45.899Z,1.55
2022-12-04T03:43:29.333Z,1.87
2022-12-04T03:46:02.544Z,1.85
2022-12-04T03:48:47.515Z,1.58
2022-12-04T03:51:25.803Z,1.78
2022-12-04T03:54:02.657Z,1.74
2022-12-04T03:56:34.706Z,1.72
2022-12-04T03:59:08.313Z,1.58
2022-12-04T04:01:40.488Z,1.63
2022-12-04T04:04:13.604Z,1.58
2022-12-04T04:06:47.741Z,2.00
2022-12-04T04:09:22.670Z,1.92
2022-12-04T04:11:56.112Z,1.85
2022-12-04T04:14:37.393Z,1.72
2022-12-04T04:17:08.943Z,1.48
2022-12-04T04:19:38.355Z,1.30
2022-12-04T04:22:09.174Z,1.28
2022-12-04T04:24:50.873Z,1.50
2022-12-04T04:27:17.222Z,1.33
2022-12-04T04:29:50.619Z,1.23
2022-12-04T04:32:37.922Z,1.21
2022-12-04T04:35:07.026Z,1.60
2022-12-04T04:37:52.863Z,1.64
2022-12-04T04:40:22.910Z,1.73
2022-12-04T04:43:05.182Z,1.81
2022-12-04T04:45:47.374Z,1.49
2022-12-04T04:48:23.959Z,1.71
2022-12-04T04:50:51.162Z,1.49
2022-12-04T04:53:24.772Z,1.36
2022-12-04T04:55:51.305Z,1.59
2022-12-04T04:58:20.205Z,2.02
2022-12-04T05:01:00.954Z,2.03
2022-12-04T05:03:28.151Z,1.79
2022-12-04T05:05:54.558Z,1.69
2022-12-04T05:08:21.483Z,1.68
2022-12-04T05:10:47.907Z,1.68
2022-12-04T05:13:15.424Z,1.56
2022-12-04T05:15:41.899Z,1.40
2022-12-04T05:18:09.293Z,1.67
2022-12-04T05:20:39.271Z,1.69
2022-12-04T05:23:06.052Z,1.46
2022-12-04T05:25:32.671Z,1.52
2022-12-04T05:27:59.004Z,1.62
2022-12-04T05:30:25.584Z,1.50
2022-12-04T05:32:52.153Z,1.89
2022-12-04T05:35:18.847Z,1.72
2022-12-04T05:37:45.550Z,1.75
2022-12-04T05:40:12.153Z,1.73
2022-12-04T05:42:38.858Z,1.91
2022-12-04T05:45:06.038Z,1.73
2022-12-04T05:47:32.437Z,1.78
2022-12-04T05:49:58.910Z,1.84
2022-12-04T05:52:25.259Z,1.94
2022-12-04T05:54:51.647Z,1.55
2022-12-04T05:57:18.070Z,1.77
2022-12-04T05:59:44.723Z,2.04
2022-12-04T06:02:11.325Z,1.73
2022-12-04T06:04:37.886Z,1.60
2022-12-04T06:07:04.286Z,1.65
2022-12-04T06:09:30.968Z,1.83
2022-12-04T06:11:58.351Z,1.64
2022-12-04T06:14:25.063Z,1.84
2022-12-04T06:16:51.497Z,1.84
2022-12-04T06:19:20.176Z,1.72
2022-12-04T06:21:49.398Z,1.86
2022-12-04T06:24:19.319Z,1.93
2022-12-04T06:27:11.345Z,2.01
2022-12-04T06:29:33.220Z,1.95
2022-12-04T06:31:59.808Z,1.95
2022-12-04T06:34:26.333Z,1.85
2022-12-04T06:36:52.983Z,2.01
2022-12-04T06:39:19.432Z,2.01
2022-12-04T06:41:46.037Z,2.18
2022-12-04T06:44:13.407Z,1.87
2022-12-04T06:46:45.099Z,1.82
2022-12-04T06:49:13.341Z,1.92
2022-12-04T06:51:39.724Z,1.88
2022-12-04T06:54:06.510Z,1.80
2022-12-04T06:56:33.836Z,2.05
2022-12-04T06:59:02.409Z,2.22
2022-12-04T07:01:31.863Z,1.78
2022-12-04T07:03:58.932Z,2.03
2022-12-04T07:06:31.751Z,1.81
2022-12-04T07:09:01.615Z,1.80
2022-12-04T07:11:29.182Z,1.84
2022-12-04T07:13:55.820Z,1.89
2022-12-04T07:16:24.331Z,2.05
2022-12-04T07:18:51.850Z,1.91
2022-12-04T07:21:20.011Z,1.90
2022-12-04T07:23:49.588Z,1.85
2022-12-04T07:26:16.239Z,1.65
2022-12-04T07:28:42.742Z,1.88
2022-12-04T07:31:13.223Z,1.94
2022-12-04T07:33:40.471Z,1.86
2022-12-04T07:36:09.382Z,2.51
2022-12-04T07:38:35.928Z,2.23
2022-12-04T07:41:04.637Z,2.33
2022-12-04T07:43:32.293Z,2.24
2022-12-04T07:46:03.339Z,1.99
2022-12-04T07:48:33.350Z,2.23
2022-12-04T07:51:08.729Z,1.84
2022-12-04T07:53:36.496Z,1.87
2022-12-04T07:56:05.184Z,2.27
2022-12-04T07:58:33.015Z,1.95
2022-12-04T08:01:26.336Z,1.84
2022-12-04T08:03:56.136Z,2.26
2022-12-04T08:06:24.720Z,2.30
2022-12-04T08:08:52.454Z,1.92
2022-12-04T08:11:22.101Z,1.87
2022-12-04T08:13:49.256Z,1.81
2022-12-04T08:16:15.901Z,2.05
2022-12-04T08:18:42.641Z,2.05
2022-12-04T08:21:11.920Z,2.31
2022-12-04T08:23:40.399Z,2.13
2022-12-04T08:26:07.524Z,2.06
2022-12-04T08:28:35.277Z,2.01
2022-12-04T08:31:03.667Z,2.34
2022-12-04T08:33:30.178Z,2.43
2022-12-04T08:35:56.849Z,2.26
2022-12-04T08:38:23.315Z,1.99
2022-12-04T08:40:49.983Z,1.92
2022-12-04T08:43:16.491Z,2.10
2022-12-04T08:45:42.948Z,2.09
2022-12-04T08:48:09.697Z,2.20
2022-12-04T08:50:36.105Z,2.09
2022-12-04T08:53:02.541Z,2.23
2022-12-04T08:55:28.952Z,2.46
2022-12-04T08:57:55.340Z,2.24
2022-12-04T09:00:21.776Z,2.23
2022-12-04T09:02:49.369Z,2.16
2022-12-04T09:05:16.543Z,2.31
2022-12-04T09:07:42.898Z,2.49
2022-12-04T09:10:10.176Z,2.47
2022-12-04T09:12:36.542Z,2.38
2022-12-04T09:15:03.137Z,2.39
2022-12-04T09:17:29.647Z,2.27
2022-12-04T09:20:00.646Z,2.45
2022-12-04T09:22:40.503Z,2.52
2022-12-04T09:25:14.417Z,2.63
2022-12-04T09:27:40.834Z,2.53
2022-12-04T09:30:09.565Z,2.21
2022-12-04T09:32:38.173Z,2.39
2022-12-04T09:35:05.640Z,2.25
2022-12-04T09:37:35.465Z,2.14
2022-12-04T09:40:02.247Z,2.26
2022-12-04T09:42:43.437Z,2.39
2022-12-04T09:45:20.035Z,2.27
2022-12-04T09:47:53.627Z,2.26
2022-12-04T09:50:23.737Z,2.14
2022-12-04T09:52:58.807Z,2.62
2022-12-04T09:55:47.352Z,2.78
2022-12-04T09:58:17.799Z,2.84
2022-12-04T10:00:47.407Z,2.39
2022-12-04T10:03:17.466Z,2.25
2022-12-04T10:06:11.729Z,2.24
2022-12-04T10:08:41.435Z,2.19
2022-12-04T10:11:42.878Z,2.27
2022-12-04T10:14:09.596Z,2.48
2022-12-04T10:16:56.115Z,2.66
2022-12-04T10:19:25.153Z,2.31
2022-12-04T10:22:04.273Z,2.44
2022-12-04T10:24:54.055Z,2.35
2022-12-04T10:27:27.966Z,2.81
2022-12-04T10:29:59.329Z,2.70
2022-12-04T10:32:30.149Z,2.67
2022-12-04T10:35:02.955Z,2.69
2022-12-04T10:37:31.661Z,2.53
2022-12-04T10:40:20.852Z,2.29
2022-12-04T10:42:53.647Z,2.24
2022-12-04T10:45:22.680Z,2.19
2022-12-04T10:47:52.456Z,2.11
2022-12-04T10:50:23.890Z,2.08
2022-12-04T10:52:50.968Z,2.48
2022-12-04T10:55:34.960Z,2.54
2022-12-04T10:58:01.843Z,2.65
2022-12-04T11:00:36.026Z,2.44
2022-12-04T11:03:22.396Z,2.48
2022-12-04T11:05:57.202Z,2.56
2022-12-04T11:08:27.395Z,2.49
2022-12-04T11:11:02.379Z,2.45
2022-12-04T11:13:29.259Z,2.51
2022-12-04T11:15:57.303Z,2.54
2022-12-04T11:18:29.731Z,2.54
2022-12-04T11:21:13.101Z,2.68
2022-12-04T11:23:46.744Z,2.74
2022-12-04T11:26:13.579Z,2.70
2022-12-04T11:28:45.324Z,2.57
2022-12-04T11:31:17.870Z,2.44
2022-12-04T11:33:55.966Z,2.47
2022-12-04T11:36:30.239Z,2.65
2022-12-04T11:39:13.462Z,2.57
2022-12-04T11:41:40.311Z,2.44
2022-12-04T11:44:16.214Z,2.29
2022-12-04T11:46:52.765Z,2.25
2022-12-04T11:49:22.515Z,2.30
2022-12-04T11:51:57.929Z,2.31
2022-12-04T11:54:30.353Z,2.39
2022-12-04T11:57:26.771Z,2.51
2022-12-04T12:00:03.752Z,2.42
2022-12-04T12:03:03.403Z,2.32
2022-12-04T12:06:21.172Z,2.68
2022-12-04T12:09:09.399Z,2.45
2022-12-04T12:11:46.598Z,2.38
2022-12-04T12:14:30.281Z,2.69
2022-12-04T12:17:29.691Z,2.73
2022-12-04T12:20:04.109Z,2.49
2022-12-04T12:22:48.812Z,2.94
2022-12-04T12:25:37.555Z,2.60
2022-12-04T12:28:16.818Z,2.30
2022-12-04T12:31:09.331Z,2.35
2022-12-04T12:33:43.028Z,2.61
2022-12-04T12:36:11.399Z,2.52
2022-12-04T12:38:46.613Z,2.56
2022-12-04T12:41:20.528Z,2.69
2022-12-04T12:44:30.644Z,2.92
2022-12-04T12:47:02.390Z,2.78
2022-12-04T12:49:39.029Z,2.67
2022-12-04T12:52:31.645Z,2.68
2022-12-04T12:55:23.213Z,2.64
2022-12-04T12:58:09.904Z,2.83
2022-12-04T13:00:49.546Z,2.76
2022-12-04T13:03:39.927Z,2.56
2022-12-04T13:06:12.488Z,3.10
2022-12-04T13:08:53.156Z,2.99
2022-12-04T13:11:25.650Z,2.75
2022-12-04T13:13:57.525Z,2.54
2022-12-04T13:16:34.208Z,2.47
2022-12-04T13:19:11.344Z,2.53
2022-12-04T13:22:01.618Z,2.94
2022-12-04T13:24:52.792Z,2.62
2022-12-04T13:27:34.498Z,2.74
2022-12-04T13:30:18.968Z,2.41
2022-12-04T13:33:04.427Z,2.65
2022-12-04T13:36:01.464Z,2.88
2022-12-04T13:39:00.415Z,2.91
2022-12-04T13:41:28.122Z,2.83
2022-12-04T13:43:55.346Z,2.89
2022-12-04T13:46:30.817Z,2.69
2022-12-04T13:49:24.677Z,2.40
2022-12-04T13:51:52.515Z,2.36
2022-12-04T13:54:27.203Z,2.41
2022-12-04T13:57:16.533Z,2.75
2022-12-04T13:59:43.847Z,2.88
2022-12-04T14:02:34.483Z,2.77
2022-12-04T14:05:11.451Z,2.52
2022-12-04T14:07:42.142Z,2.27
2022-12-04T14:10:14.805Z,2.38
2022-12-04T14:12:44.102Z,2.63
2022-12-04T14:15:28.650Z,2.65
2022-12-04T14:18:13.521Z,2.71
2022-12-04T14:20:42.690Z,2.62
2022-12-04T14:23:16.308Z,2.28
2022-12-04T14:25:42.722Z,2.42
2022-12-04T14:28:42.294Z,2.63
2022-12-04T14:31:08.922Z,2.34
2022-12-04T14:33:43.225Z,2.20
2022-12-04T14:36:23.564Z,2.17
2022-12-04T14:38:59.413Z,2.35
2022-12-04T14:41:26.728Z,2.70
2022-12-04T14:43:53.602Z,2.76
2022-12-04T14:46:41.031Z,2.65
2022-12-04T14:49:32.373Z,2.58
2022-12-04T14:52:13.994Z,2.56
2022-12-04T14:55:06.982Z,2.39
2022-12-04T14:57:44.987Z,2.31
2022-12-04T15:00:23.343Z,2.63
2022-12-04T15:02:56.763Z,2.72
2022-12-04T15:05:29.327Z,2.50
2022-12-04T15:08:05.430Z,2.86
2022-12-04T15:10:34.260Z,2.36
2022-12-04T15:13:00.780Z,2.38
2022-12-04T15:15:29.846Z,2.48
2022-12-04T15:18:11.090Z,2.38
2022-12-04T15:20:48.428Z,2.42
2022-12-04T15:23:21.473Z,2.43
2022-12-04T15:25:53.231Z,2.22
2022-12-04T15:28:24.277Z,2.34
2022-12-04T15:30:52.593Z,2.66
2022-12-04T15:33:22.435Z,2.56
2022-12-04T15:35:56.583Z,2.30
2022-12-04T15:38:23.610Z,2.38
2022-12-04T15:40:56.615Z,2.33
2022-12-04T15:43:53.446Z,2.39
2022-12-04T15:46:26.782Z,2.43
2022-12-04T15:49:04.735Z,2.55
2022-12-04T15:51:31.224Z,2.58
2022-12-04T15:53:57.632Z,2.59
2022-12-04T15:56:24.016Z,2.73
2022-12-04T15:58:57.911Z,2.71
2022-12-04T16:01:24.624Z,2.58
2022-12-04T16:03:53.184Z,2.55
2022-12-04T16:06:23.165Z,2.51
2022-12-04T16:09:00.851Z,2.31
2022-12-04T16:11:37.190Z,2.46
2022-12-04T16:14:07.752Z,2.51
2022-12-04T16:16:38.402Z,2.44
2022-12-04T16:19:38.572Z,3.07
2022-12-04T16:22:20.344Z,2.64
2022-12-04T16:24:47.381Z,2.46
2022-12-04T16:27:16.664Z,2.55
2022-12-04T16:29:43.735Z,2.27
2022-12-04T16:32:16.297Z,2.09
2022-12-04T16:34:42.693Z,2.53
2022-12-04T16:37:17.170Z,2.16
2022-12-04T16:39:43.984Z,2.12
2022-12-04T16:42:25.034Z,2.43
2022-12-04T16:44:52.051Z,2.39
2022-12-04T16:47:19.246Z,2.54
2022-12-04T16:49:49.041Z,2.63
2022-12-04T16:52:15.696Z,2.36
2022-12-04T16:54:42.433Z,2.61
2022-12-04T16:57:09.379Z,2.68
2022-12-04T16:59:35.937Z,2.82
2022-12-04T17:02:03.801Z,2.83
2022-12-04T17:04:30.232Z,2.82
2022-12-04T17:06:56.696Z,2.56
2022-12-04T17:09:23.168Z,2.31
2022-12-04T17:11:49.596Z,2.44
2022-12-04T17:14:16.160Z,2.17
2022-12-04T17:16:43.436Z,2.31
2022-12-04T17:19:11.325Z,2.13
2022-12-04T17:21:38.359Z,2.49
2022-12-04T17:24:05.687Z,2.25
2022-12-04T17:26:32.460Z,2.57
2022-12-04T17:28:58.768Z,2.20
2022-12-04T17:31:26.726Z,2.17
2022-12-04T17:33:53.628Z,2.07
2022-12-04T17:36:23.014Z,2.28
2022-12-04T17:38:54.554Z,2.20
2022-12-04T17:41:20.995Z,2.30
2022-12-04T17:43:47.425Z,2.39
2022-12-04T17:46:17.758Z,2.38
2022-12-04T17:48:44.387Z,2.12
2022-12-04T17:51:13.452Z,2.02
2022-12-04T17:53:40.557Z,2.07
2022-12-04T17:56:09.817Z,2.09
2022-12-04T17:58:36.389Z,2.08
2022-12-04T18:01:10.485Z,2.23
2022-12-04T18:03:37.417Z,2.31
2022-12-04T18:06:18.744Z,2.17
2022-12-04T18:08:49.730Z,2.19
2022-12-04T18:11:17.936Z,2.24
2022-12-04T18:13:44.260Z,2.23
2022-12-04T18:16:11.325Z,2.20
2022-12-04T18:18:38.937Z,2.22
2022-12-04T18:21:10.996Z,2.26
2022-12-04T18:23:39.233Z,2.15
2022-12-04T18:26:06.211Z,2.26
2022-12-04T18:28:33.424Z,2.12
2022-12-04T18:31:04.489Z,2.29
2022-12-04T18:33:32.003Z,2.24
2022-12-04T18:35:58.869Z,2.11
2022-12-04T18:38:27.640Z,2.28
2022-12-04T18:40:54.307Z,2.30
2022-12-04T18:43:21.619Z,2.22
2022-12-04T18:45:58.676Z,2.36
2022-12-04T18:48:28.577Z,2.22
2022-12-04T18:50:55.118Z,2.15
2022-12-04T18:53:22.100Z,2.49
2022-12-04T18:55:48.690Z,2.70
2022-12-04T18:58:15.144Z,2.45
2022-12-04T19:00:41.484Z,2.50
2022-12-04T19:03:07.834Z,2.32
2022-12-04T19:05:34.355Z,2.45
2022-12-04T19:08:01.126Z,2.80
2022-12-04T19:10:28.397Z,2.66
2022-12-04T19:12:55.728Z,2.58
2022-12-04T19:15:22.285Z,2.49
2022-12-04T19:17:49.008Z,2.43
2022-12-04T19:20:15.348Z,2.44
2022-12-04T19:22:41.819Z,2.57
2022-12-04T19:25:08.830Z,2.69
2022-12-04T19:27:35.229Z,2.48
2022-12-04T19:30:01.560Z,2.66
2022-12-04T19:32:27.961Z,2.44
2022-12-04T19:34:54.281Z,2.16
2022-12-04T19:37:20.625Z,2.39
2022-12-04T19:39:47.182Z,2.53
2022-12-04T19:42:13.700Z,2.53
2022-12-04T19:44:48.245Z,2.41
2022-12-04T19:47:14.992Z,2.30
2022-12-04T19:49:41.443Z,2.44
2022-12-04T19:52:07.807Z,2.54
2022-12-04T19:54:34.136Z,2.37
2022-12-04T19:57:00.595Z,2.48
2022-12-04T19:59:29.498Z,2.34
2022-12-04T20:01:59.523Z,2.55
2022-12-04T20:04:25.933Z,2.47
2022-12-04T20:06:52.667Z,2.27
2022-12-04T20:09:21.981Z,2.74
2022-12-04T20:11:48.789Z,2.43
2022-12-04T20:14:15.693Z,2.47
2022-12-04T20:16:42.286Z,2.75
2022-12-04T20:19:13.491Z,2.52
2022-12-04T20:21:39.995Z,2.58
2022-12-04T20:24:06.982Z,2.66
2022-12-04T20:26:35.936Z,2.54
2022-12-04T20:29:02.650Z,2.65
2022-12-04T20:31:37.949Z,2.40
2022-12-04T20:34:08.157Z,2.41
2022-12-04T20:36:40.284Z,2.39
2022-12-04T20:39:08.039Z,2.40
2022-12-04T20:41:35.203Z,2.39
2022-12-04T20:44:04.145Z,2.42
2022-12-04T20:46:33.290Z,2.66
2022-12-04T20:49:00.911Z,2.59
2022-12-04T20:51:33.332Z,2.46
2022-12-04T20:54:00.621Z,2.31
2022-12-04T20:56:29.089Z,2.35
2022-12-04T20:59:00.583Z,2.28
2022-12-04T21:01:27.928Z,2.30
2022-12-04T21:03:54.845Z,2.34
2022-12-04T21:06:28.353Z,2.42
2022-12-04T21:08:58.088Z,2.42
2022-12-04T21:11:27.494Z,2.61
2022-12-04T21:13:55.860Z,2.63
2022-12-04T21:16:22.658Z,2.58
2022-12-04T21:18:49.179Z,2.57
2022-12-04T21:21:15.590Z,2.51
2022-12-04T21:23:42.019Z,2.61
2022-12-04T21:26:08.327Z,2.59
2022-12-04T21:28:34.640Z,2.36
2022-12-04T21:31:05.743Z,2.29
2022-12-04T21:33:33.565Z,2.32
2022-12-04T21:36:09.225Z,2.23
2022-12-04T21:38:37.913Z,2.23
2022-12-04T21:41:06.784Z,2.25
2022-12-04T21:43:33.897Z,2.33
2022-12-04T21:46:09.206Z,2.30
2022-12-04T21:48:36.393Z,2.29
2022-12-04T21:51:13.237Z,2.34
2022-12-04T21:53:53.567Z,2.52
2022-12-04T21:56:21.027Z,2.41
2022-12-04T21:58:47.393Z,2.52
2022-12-04T22:01:16.144Z,2.43
2022-12-04T22:03:43.009Z,2.25
2022-12-04T22:06:09.787Z,2.27
2022-12-04T22:08:37.265Z,2.56
2022-12-04T22:11:09.041Z,2.64
2022-12-04T22:13:37.277Z,2.70
2022-12-04T22:16:09.393Z,2.62
2022-12-04T22:18:36.543Z,2.52
2022-12-04T22:21:08.376Z,2.53
2022-12-04T22:23:35.720Z,2.46
2022-12-04T22:26:10.940Z,2.45
2022-12-04T22:28:37.471Z,2.39
2022-12-04T22:31:10.858Z,2.46
2022-12-04T22:33:37.937Z,2.44
2022-12-04T22:36:07.488Z,2.83
2022-12-04T22:38:42.505Z,2.67
2022-12-04T22:41:21.250Z,2.46
2022-12-04T22:43:47.917Z,2.52
2022-12-04T22:46:14.491Z,2.47
2022-12-04T22:48:42.659Z,2.39
2022-12-04T22:51:14.486Z,2.52
2022-12-04T22:53:44.107Z,2.46
2022-12-04T22:56:16.151Z,2.33
2022-12-04T22:58:43.247Z,2.24
2022-12-04T23:01:14.168Z,2.28
2022-12-04T23:03:42.398Z,2.37
2022-12-04T23:06:10.532Z,2.33
2022-12-04T23:08:39.065Z,2.63
2022-12-04T23:11:11.417Z,2.70
2022-12-04T23:13:38.752Z,2.61
2022-12-04T23:16:09.541Z,2.55
2022-12-04T23:18:36.789Z,2.49
2022-12-04T23:21:09.681Z,2.53
2022-12-04T23:23:37.641Z,2.59
2022-12-04T23:26:05.728Z,2.56
2022-12-04T23:28:32.302Z,2.51
2022-12-04T23:30:59.397Z,2.44
2022-12-04T23:33:26.043Z,2.41
2022-12-04T23:35:54.193Z,2.47
2022-12-04T23:38:21.988Z,2.48
2022-12-04T23:40:49.118Z,2.53
2022-12-04T23:43:15.999Z,2.37
2022-12-04T23:45:43.459Z,2.53
2022-12-04T23:48:10.617Z,2.61
2022-12-04T23:50:36.999Z,2.58
2022-12-04T23:53:03.736Z,2.40
2022-12-04T23:55:34.188Z,2.32
2022-12-04T23:58:01.988Z,2.80
